Latest METAR Data

Below are the latest METARs ("Meteorological Services to Airmen Reports"), for RNAS Culdrose and Newquay Airport.

EGDR - RNAS Culdrose
Distance from station: SW 6mi, 9km
Updated: Tue, 07-Apr-2020 4:50pm BST
Overcast
Overcast
 Wind from E
Wind: E 21 mph , 33 km/h
Temperature: 54°F , 12°C
Dew Point: 45°F , 7°C
Humidity: 72%
Barometer: 30.27 inHg , 1025 hPa
Clouds: Overcast
Visibility: 6 miles , 10 km
Cloud details: Few Clouds 6000 ft
Overcast 12000 ft
2020/04/07 15:50 EGDR 071550Z AUTO 08018KT 9999 // FEW060/// OVC120/// 12/07 Q1025
EGHQ - Newquay Airport
Distance from station: NE 21mi, 34km
Updated: Tue, 07-Apr-2020 5:20pm BST
Few Clouds
Few Clouds
 Wind from SE
Wind: SE 23 mph , 37 km/h
Temperature: 59°F , 15°C
Dew Point: 37°F , 3°C
Humidity: 45%
Barometer: 30.27 inHg , 1025 hPa
Clouds: Few Clouds
Visibility: 6 miles , 10 km
Cloud details: Few Clouds 3200 ft
2020/04/07 16:20 EGHQ 071620Z 13020KT 9999 FEW032 15/03 Q1025
 
EGTE - Exeter Airport
Distance from station: ENE 88mi, 141km
Updated: Tue, 07-Apr-2020 4:50pm BST
Partly Cloudy
Partly Cloudy
 Wind from ESE
Wind: ESE 10 mph , 17 km/h
Temperature: 57°F , 14°C
Dew Point: 34°F , 1°C
Humidity: 41%
Barometer: 30.33 inHg , 1027 hPa
Clouds: Partly Cloudy
Visibility: 6 miles , 10 km
Cloud details: Partly Cloudy 4900 ft
2020/04/07 15:50 EGTE 071550Z 12009KT 9999 SCT049 14/01 Q1027
EGHE - St Marys, IOS
Distance from station: W 51mi, 82km
Updated: Tue, 07-Apr-2020 3:50pm BST
NOT Current
Few Clouds
Few Clouds
 Wind from E
Wind: E 13 mph , 20 km/h
Temperature: 54°F , 12°C
Dew Point: 48°F , 9°C
Humidity: 82%
Barometer: 30.27 inHg , 1025 hPa
Clouds: Few Clouds
Visibility: 6 miles , 10 km
Cloud details: Few Clouds 4500 ft
2020/04/07 14:50 EGHE 071450Z 10011KT 9999 FEW045 12/09 Q1025

Metar display script from Saratoga-Weather.org

 

 

UK - WEATHER STATION TOPSITES - UK World Weather Websites

Copyright © Carnkie Weather 2009 - 2020.